Tiempo atmosférico en la estación meteorológica de Balsareny, Barcelona (352 m.)



Fecha
DESCASC
Temp. máxima en grados centígrados (hora)
DESCASC
Temp. mínima en grados centígrados (hora)
DESCASC
Temp. media en grados centígrados
DESCASC
Racha de viento máxima en m/sg (hora)
DESCASC
Velocidad máxima media en intervalos de 10 minutos(hora)
DESCASC
Precipitaciones diarias en mm
DESCASC
Precipitaciones de 00:00 a 06:00 en mm
DESCASC
Precipitaciones de 06:00 a 12:00 en mm
DESCASC
Precipitaciones de 12:00 a 18:00 en mm
DESCASC
Precipitaciones de 18:00 a 24:00 en mm
DESCASC
23-05-2018 25.7 (15:50) 10.1 (06:30) 17.9 10.28 (17:20) 6.94 (17:00) 0 0 0 0 0
22-05-2018 21.7 (15:30) 11.9 (03:20) 16.8 8.89 (16:20) 5.83 (16:40) 0.8 0 0.8 0 0
21-05-2018 24.3 (16:00) 9 (07:20) 16.6 8.33 (17:30) 5.28 (18:20) 5 0.2 0 0 4.8
20-05-2018 24.2 (14:00) 8.5 (00:00) 16.4 7.22 (16:10) 3.89 (16:10) 6.8 0 0 6.4 0.4
19-05-2018 24.5 (14:20) 9 (00:00) 16.8 7.78 (15:20) 5 (15:30) 4 0 0 3.8 0.2
18-05-2018 22.8 (12:10) 9.1 (00:00) 15.9 8.33 (15:10) 5.56 (15:10) 0 0 0 0 0
17-05-2018 24.7 (15:30) 8.5 (00:00) 16.6 10.83 (15:50) 6.39 (16:00) 0 0 0 0 0
16-05-2018 23.6 (17:30) 6.6 (00:00) 15.1 7.78 (19:10) 5.83 (19:10) 0 0 0 0 0
15-05-2018 19.4 (14:50) 4.2 (00:00) 11.8 8.33 (13:30) 5.28 (13:30) 0 0 0 0 0
14-05-2018 18 (16:40) 2.9 (00:00) 10.5 7.5 (12:40) 3.89 (12:20) 0 0 0 0 0
13-05-2018 17.2 (15:40) 5.9 (00:00) 11.6 11.11 (13:40) 7.22 (17:10) 5.6 5.2 0 0.2 0.2
12-05-2018 19.3 (14:50) 11.5 (00:00) 15.4 10 (21:50) 5 (21:50) 21.4 0 0 0 21.4
11-05-2018 25.1 (17:30) 12.1 (07:20) 18.6 10.28 (15:10) 5.28 (15:10) 0 0 0 0 0
10-05-2018 20 (16:40) 10.5 (00:00) 15.3 7.5 (18:10) 4.72 (18:50) 0.6 0 0 0 0.6
09-05-2018 21.7 (15:10) 11.2 (00:00) 16.5 7.78 (18:00) 5 (16:00) 0 0 0 0 0
08-05-2018 23.2 (15:40) 12 (00:00) 17.6 12.78 (17:10) 8.33 (17:10) 8 0 0.2 7.4 0.4
07-05-2018 24.4 (14:40) 13.4 (00:00) 18.9 10.56 (15:30) 6.39 (15:10) 23.8 0.4 0.4 22.2 0.8
06-05-2018 21.9 (17:10) 7.5 (00:00) 14.7 5.83 (20:30) 3.61 (19:10) 2.6 0 1.8 0 0.8
05-05-2018 21.3 (18:10) 8.2 (00:00) 14.7 5 (18:40) 3.33 (18:40) 0 0 0 0 0
04-05-2018 19.4 (18:40) 8 (00:00) 13.7 6.11 (09:10) 3.61 (09:10) 0 0 0 0 0
03-05-2018 20.5 (16:10) 5.3 (00:00) 12.9 10.28 (13:20) 6.39 (17:40) 0 0 0 0 0
02-05-2018 21 (18:00) 1.3 (00:00) 11.1 9.44 (18:30) 5.28 (18:20) 0 0 0 0 0
01-05-2018 14.9 (14:40) 4.7 (02:30) 9.8 7.78 (15:40) 5 (15:50) 1.6 0 0 1.6 0
30-04-2018 16.7 (16:30) 3.4 (00:00) 10.1 9.44 (15:50) 5.28 (14:00) 0 0 0 0 0
29-04-2018 16 (10:50) 7.4 (00:00) 11.7 11.67 (11:00) 6.94 (10:50) 6.6 0 4.6 2 0
28-04-2018 21.3 (16:50) 11.4 (00:00) 16.3 6.94 (22:40) 5 (18:00) 0 0 0 0 0
27-04-2018 26.8 (16:20) 9.3 (00:00) 18 10.28 (18:30) 6.67 (18:10) 0 0 0 0 0
26-04-2018 24.2 (17:40) 11 (00:00) 17.6 8.06 (21:10) 5.28 (21:00) 0 0 0 0 0
25-04-2018 28 (13:30) 9.4 (00:00) 18.7 10.28 (15:20) 7.22 (15:00) 0 0 0 0 0
24-04-2018 26.5 (16:30) 9.3 (00:00) 17.9 7.22 (18:00) 4.72 (19:10) 0 0 0 0 0

Gráficas

Temp. máximas Temp. mínimas Temp. medias Precipitaciones Rachas de viento máximas Velocidades máximas media en intervalos de 10 minutos

Datos horarios

Fecha y hora oficial Temperatura (ºC) Velocidad del viento (km/h) Dirección del viento Racha (km/h) Dirección de racha Precipitación (mm) Presión (hPa) Tendencia (hPa) Humedad (%)
2018-05-23 23:00:00 17.5 0 Calma 5 Sudoeste 0 -- -- 74
2018-05-23 22:00:00 18.4 5 Noroeste 8 Sudeste 0 -- -- 69
2018-05-23 21:00:00 20.6 5 Sur 18 Sur 0 -- -- 61
2018-05-23 20:00:00 21.9 14 Sur 30 Sudoeste 0 -- -- 55
2018-05-23 19:00:00 23.2 22 Sur 33 Sudoeste 0 -- -- 52
2018-05-23 18:00:00 24.6 19 Sur 37 Sur 0 -- -- 48
2018-05-23 17:00:00 24.9 25 Sur 37 Sur 0 -- -- 50
2018-05-23 16:00:00 25.7 18 Sur 28 Sur 0 -- -- 47
2018-05-23 15:00:00 25.4 14 Sur 25 Sur 0 -- -- 48
2018-05-23 14:00:00 24.7 13 Sur 26 Sudeste 0 -- -- 49
2018-05-23 13:00:00 23.6 14 Sur 23 Sur 0 -- -- 52
2018-05-23 12:00:00 22.3 10 Sur 14 Sudeste 0 -- -- 53
2018-05-23 11:00:00 20.4 4 Sur 9 Sudeste 0 -- -- 64
2018-05-23 10:00:00 17.9 4 Este 8 Este 0 -- -- 77
2018-05-23 09:00:00 15.2 3 Este 5 Este 0 -- -- 87
2018-05-23 08:00:00 11.4 3 Norte 6 Norte 0 -- -- 99
2018-05-23 07:00:00 10.2 3 Norte 7 Noroeste 0 -- -- 98
2018-05-23 06:00:00 11 5 Noroeste 7 Noroeste 0 -- -- 98
2018-05-23 05:00:00 11.2 2 Norte 5 Noroeste 0 -- -- 96
2018-05-23 04:00:00 12.2 3 Noroeste 5 Noroeste 0 -- -- 97
2018-05-23 03:00:00 12.6 2 Este 5 Sudoeste 0 -- -- 96
2018-05-23 02:00:00 12.6 3 Norte 8 Norte 0 -- -- 96
2018-05-23 01:00:00 12.6 6 Norte 10 Noroeste 0 -- -- 96
2018-05-23 00:00:00 13.4 5 Norte 9 Noroeste 0 -- -- 94
2018-05-22 23:00:00 14.5 5 Norte 9 Noroeste 0 -- -- 89
2018-05-22 22:00:00 15.7 7 Noroeste 9 Noroeste 0 -- -- 85
2018-05-22 21:00:00 17.2 4 Sudoeste 13 Sur 0 -- -- 80
2018-05-22 20:00:00 19.2 8 Sur 16 Sur 0 -- -- 68
2018-05-22 19:00:00 19.6 13 Sur 19 Sur 0 -- -- 66
2018-05-22 18:00:00 19.8 8 Noroeste 24 Norte 0 -- -- 64
2018-05-22 17:00:00 19 17 Nordeste 32 Noroeste 0 -- -- 69
2018-05-22 16:00:00 21.5 6 Oeste 13 Sudeste 0 -- -- 63
2018-05-22 15:00:00 21.3 6 Este 14 Este 0 -- -- 66
2018-05-22 14:00:00 20.4 6 Este 15 Nordeste 0 -- -- 71
2018-05-22 13:00:00 18.1 5 Este 8 Este 0 -- -- 80
2018-05-22 12:00:00 16.3 3 Este 6 Nordeste 0 -- -- 85
2018-05-22 11:00:00 14.2 0 Calma 5 Norte 0 -- -- 95
2018-05-22 10:00:00 13.2 4 Norte 6 Norte 0.6 -- -- 97
2018-05-22 09:00:00 12.6 3 Norte 6 Nordeste 0.2 -- -- 98
2018-05-22 08:00:00 12.4 2 Noroeste 5 Norte 0 -- -- 98
2018-05-22 07:00:00 12.3 3 Norte 6 Noroeste 0 -- -- 98
2018-05-22 06:00:00 12.3 4 Norte 8 Noroeste 0 -- -- 99
2018-05-22 05:00:00 12.3 5 Noroeste 7 Noroeste 0 -- -- 99
2018-05-22 04:00:00 12 4 Norte 6 Noroeste 0 -- -- 98
2018-05-22 03:00:00 12.1 6 Noroeste 9 Noroeste 0 -- -- 97
2018-05-22 02:00:00 12.8 5 Norte 10 Sudoeste 0 -- -- 96
2018-05-22 01:00:00 13.4 6 Sur 10 Sur 0 -- -- 95
2018-05-22 00:00:00 13.6 4 Nordeste 11 Noroeste 0 -- -- 95
2018-05-21 23:00:00 13.8 8 Noroeste 12 Noroeste 0 -- -- 92
2018-05-21 22:00:00 14.9 4 Norte 12 Noroeste 2.4 -- -- 92
2018-05-21 21:00:00 16.1 9 Noroeste 16 Sudoeste 0.2 -- -- 85
2018-05-21 20:00:00 18.5 12 Sudoeste 24 Sur 0 -- -- 64
2018-05-21 19:00:00 18.6 17 Sudoeste 27 Sur 2.2 -- -- 69
2018-05-21 18:00:00 22.1 18 Sur 30 Sur 0 -- -- 51
2018-05-21 17:00:00 24 11 Sur 22 Sur 0 -- -- 43
2018-05-21 16:00:00 24.3 5 Norte 13 Sudeste 0 -- -- 42
2018-05-21 15:00:00 23.4 3 Este 16 Sur 0 -- -- 45
2018-05-21 14:00:00 21.7 6 Sudoeste 13 Sudoeste 0 -- -- 51
2018-05-21 13:00:00 20 8 Sudoeste 14 Sudeste 0 -- -- 61
2018-05-21 12:00:00 19.9 5 Sur 13 Sur 0 -- -- 56
2018-05-21 11:00:00 17 4 Sudeste 9 Sur 0 -- -- 78
2018-05-21 10:00:00 13.2 3 Sur 5 Sudeste 0 -- -- 99
2018-05-21 09:00:00 11 0 Calma 6 Norte 0 -- -- 100
2018-05-21 08:00:00 9.7 3 Norte 7 Norte 0 -- -- 100
2018-05-21 07:00:00 9.2 2 Nordeste 5 Nordeste 0 -- -- 100
2018-05-21 06:00:00 9.6 3 Norte 6 Norte 0 -- -- 100
2018-05-21 05:00:00 10 0 Calma 4 Norte 0.2 -- -- 100
2018-05-21 04:00:00 10.5 3 Norte 6 Noroeste 0 -- -- 99
2018-05-21 03:00:00 11.3 2 Norte 4 Norte 0 -- -- 99
2018-05-21 02:00:00 11.7 2 Nordeste 5 Noroeste 0 -- -- 99
2018-05-21 01:00:00 12.2 5 Noroeste 7 Noroeste 0 -- -- 98
2018-05-21 00:00:00 12.8 3 Norte 8 Noroeste 0 -- -- 97
2018-05-20 23:00:00 13.5 5 Norte 7 Noroeste 0 -- -- 97
2018-05-20 22:00:00 14.1 2 Sur 6 Noroeste 0 -- -- 94
2018-05-20 21:00:00 14.2 3 Oeste 12 Norte 0 -- -- 94
2018-05-20 20:00:00 14.3 8 Norte 17 Norte 0 -- -- 96
2018-05-20 19:00:00 14.6 10 Norte 16 Norte 0.4 -- -- 97
2018-05-20 18:00:00 14.2 8 Norte 19 Norte 3.2 -- -- 97
2018-05-20 17:00:00 14.6 9 Nordeste 26 Noroeste 3.2 -- -- 94
2018-05-20 16:00:00 18.1 14 Noroeste 22 Sudoeste 0 -- -- 70
2018-05-20 15:00:00 20.8 7 Norte 23 Sudeste 0 -- -- 60
2018-05-20 14:00:00 24.2 4 Este 18 Sudeste 0 -- -- 43
2018-05-20 13:00:00 22.9 5 Norte 13 Este 0 -- -- 44
2018-05-20 12:00:00 21 6 Sur 11 Sudeste 0 -- -- 54
2018-05-20 11:00:00 19.1 4 Sudoeste 8 Este 0 -- -- 61
2018-05-20 10:00:00 16.7 3 Sudeste 7 Sudeste 0 -- -- 71
2018-05-20 09:00:00 13.5 3 Nordeste 6 Nordeste 0 -- -- 85
2018-05-20 08:00:00 10.7 3 Nordeste 6 Noroeste 0 -- -- 97
2018-05-20 07:00:00 8.5 2 Noroeste 7 Noroeste 0 -- -- 98
2018-05-20 06:00:00 8.9 5 Norte 8 Norte 0 -- -- 97
2018-05-20 05:00:00 9.9 4 Norte 10 Norte 0 -- -- 95
2018-05-20 04:00:00 11 5 Norte 10 Norte 0 -- -- 95
2018-05-20 03:00:00 12 4 Norte 6 Norte 0 -- -- 96
2018-05-20 02:00:00 12.7 6 Norte 10 Noroeste 0 -- -- 96
2018-05-20 01:00:00 13.6 3 Norte 7 Noroeste 0 -- -- 94
2018-05-20 00:00:00 13.9 6 Noroeste 8 Noroeste 0 -- -- 95
2018-05-19 23:00:00 15 2 Sudoeste 8 Sur 0 -- -- 95
2018-05-19 22:00:00 15.5 6 Sur 10 Sur 0 -- -- 93
2018-05-19 21:00:00 16.4 3 Sur 8 Noroeste 0 -- -- 87
2018-05-19 20:00:00 16.3 7 Noroeste 10 Noroeste 0 -- -- 83
2018-05-19 19:00:00 16.9 9 Nordeste 12 Nordeste 0.2 -- -- 88
2018-05-19 18:00:00 14.8 5 Norte 14 Sudoeste 0.2 -- -- 94
2018-05-19 17:00:00 14 9 Sur 22 Sur 1.4 -- -- 92
2018-05-19 16:00:00 17.1 10 Sur 28 Noroeste 2.2 -- -- 78
2018-05-19 15:00:00 21.5 14 Noroeste 26 Noroeste 0 -- -- 54
2018-05-19 14:00:00 24.4 9 Sur 21 Sudoeste 0 -- -- 44
2018-05-19 13:00:00 23.1 11 Sur 22 Sur 0 -- -- 45
2018-05-19 12:00:00 21.7 9 Sur 15 Sur 0 -- -- 56
2018-05-19 11:00:00 19.7 5 Sudeste 10 Sudeste 0 -- -- 62
2018-05-19 10:00:00 17.1 4 Este 8 Sudeste 0 -- -- 70
2018-05-19 09:00:00 14.1 3 Nordeste 5 Nordeste 0 -- -- 84
2018-05-19 08:00:00 10.9 2 Nordeste 4 Norte 0 -- -- 94
2018-05-19 07:00:00 9.4 0 Calma -- -- 0 -- -- 97
2018-05-19 06:00:00 9.6 2 Oeste 8 Noroeste 0 -- -- 96
2018-05-19 05:00:00 10.5 4 Noroeste 6 Noroeste 0 -- -- 96
2018-05-19 04:00:00 10.5 4 Norte 9 Noroeste 0 -- -- 95
2018-05-19 03:00:00 11.9 4 Noroeste 7 Noroeste 0 -- -- 93
2018-05-19 02:00:00 12.7 2 Este 5 Noroeste 0 -- -- 90
2018-05-19 01:00:00 13.1 0 Calma 5 Norte 0 -- -- 90
2018-05-19 00:00:00 13.5 0 Calma 10 Noroeste 0 -- -- 87
2018-05-18 23:00:00 14.8 2 Norte 8 Noroeste 0 -- -- 82
2018-05-18 22:00:00 16.3 2 Oeste 8 Oeste 0 -- -- 78
2018-05-18 21:00:00 17.1 4 Noroeste 9 Noroeste 0 -- -- 73
2018-05-18 20:00:00 17.9 4 Norte 8 Norte 0 -- -- 71
2018-05-18 19:00:00 18.1 2 Noroeste 13 Sur 0 -- -- 67
2018-05-18 18:00:00 17.8 9 Sur 18 Sur 0 -- -- 68
2018-05-18 17:00:00 19.9 17 Sudeste 28 Este 0 -- -- 58
2018-05-18 16:00:00 20.3 14 Sur 30 Sur 0 -- -- 66
2018-05-18 15:00:00 21.2 17 Sur 26 Sur 0 -- -- 61
2018-05-18 14:00:00 20.8 6 Sur 16 Sur 0 -- -- 58
2018-05-18 13:00:00 21.5 9 Sur 17 Sur 0 -- -- 55
2018-05-18 12:00:00 21.9 5 Este 15 Sur 0 -- -- 54
2018-05-18 11:00:00 19.9 5 Sur 11 Sudoeste 0 -- -- 58
2018-05-18 10:00:00 17 3 Nordeste 8 Norte 0 -- -- 71
2018-05-18 09:00:00 13.5 4 Norte 10 Norte 0 -- -- 83
2018-05-18 08:00:00 10.6 5 Norte 9 Norte 0 -- -- 91
2018-05-18 07:00:00 9.5 6 Norte 8 Norte 0 -- -- 96
2018-05-18 06:00:00 10 6 Norte 9 Noroeste 0 -- -- 93
2018-05-18 05:00:00 11 5 Norte 9 Norte 0 -- -- 93
2018-05-18 04:00:00 11.9 6 Norte 8 Norte 0 -- -- 92
2018-05-18 03:00:00 12.3 5 Norte 11 Noroeste 0 -- -- 91
2018-05-18 02:00:00 12.4 9 Noroeste 12 Norte 0 -- -- 88
2018-05-18 01:00:00 13.9 7 Noroeste 10 Norte 0 -- -- 84
2018-05-18 00:00:00 15 4 Noroeste 9 Norte 0 -- -- 79
2018-05-17 23:00:00 16.2 0 Calma 5 Sur 0 -- -- 69
2018-05-17 22:00:00 16.7 4 Sudoeste 17 Sur 0 -- -- 65
2018-05-17 21:00:00 17.5 12 Sudoeste 18 Sur 0 -- -- 62
2018-05-17 20:00:00 18.6 10 Sur 18 Sudeste 0 -- -- 59
2018-05-17 19:00:00 19.5 12 Sudeste 23 Sudeste 0 -- -- 55
2018-05-17 18:00:00 19.9 14 Sur 26 Sur 0 -- -- 54
2018-05-17 17:00:00 21.6 21 Sur 33 Sudeste 0 -- -- 49
2018-05-17 16:00:00 22.4 23 Sur 39 Sur 0 -- -- 48
2018-05-17 15:00:00 23.4 10 Sur 21 Sur 0 -- -- 46
2018-05-17 14:00:00 23.3 13 Sudeste 27 Sudeste 0 -- -- 51
2018-05-17 13:00:00 22.4 12 Sudeste 23 Sur 0 -- -- 49
2018-05-17 12:00:00 21.2 13 Sur 22 Sudeste 0 -- -- 47
2018-05-17 11:00:00 19.6 5 Sur 10 Sur 0 -- -- 63
2018-05-17 10:00:00 16.9 4 Sudeste 8 Nordeste 0 -- -- 69
2018-05-17 09:00:00 13.7 4 Nordeste 8 Norte 0 -- -- 79
2018-05-17 08:00:00 10.3 4 Norte 8 Norte 0 -- -- 96
2018-05-17 07:00:00 8.9 3 Norte 6 Norte 0 -- -- 96
2018-05-17 06:00:00 9.5 2 Sur 4 Sudoeste 0 -- -- 96
2018-05-17 05:00:00 9.5 2 Sudoeste 7 Noroeste 0 -- -- 96
2018-05-17 04:00:00 10.1 4 Noroeste 9 Noroeste 0 -- -- 94
2018-05-17 03:00:00 10.1 4 Norte 8 Norte 0 -- -- 94
2018-05-17 02:00:00 11.4 5 Noroeste 9 Norte 0 -- -- 90
2018-05-17 01:00:00 12.7 4 Noroeste 11 Noroeste 0 -- -- 88
2018-05-17 00:00:00 14 9 Noroeste 12 Noroeste 0 -- -- 84
2018-05-16 23:00:00 15.7 7 Noroeste 10 Noroeste 0 -- -- 77
2018-05-16 22:00:00 17.5 4 Sur 23 Sudoeste 0 -- -- 70
2018-05-16 21:00:00 18.6 13 Sur 22 Sur 0 -- -- 65
2018-05-16 20:00:00 20.3 15 Sur 28 Sur 0 -- -- 58
2018-05-16 19:00:00 21.4 18 Sudoeste 28 Sudoeste 0 -- -- 57
2018-05-16 18:00:00 23 8 Sur 15 Sudeste 0 -- -- 44
2018-05-16 17:00:00 22.7 6 Sur 14 Sur 0 -- -- 49
2018-05-16 16:00:00 22.9 6 Este 17 Sur 0 -- -- 49
2018-05-16 15:00:00 21.4 5 Sudeste 12 Sudeste 0 -- -- 53
2018-05-16 14:00:00 19.2 5 Noroeste 14 Nordeste 0 -- -- 61
2018-05-16 13:00:00 17.7 7 Nordeste 15 Este 0 -- -- 66
2018-05-16 12:00:00 15.8 6 Nordeste 10 Nordeste 0 -- -- 74
2018-05-16 11:00:00 14.5 8 Nordeste 11 Nordeste 0 -- -- 77
2018-05-16 10:00:00 10.8 4 Norte 8 Norte 0 -- -- 91
2018-05-16 09:00:00 8.9 6 Norte 9 Norte 0 -- -- 95
2018-05-16 08:00:00 8 2 Norte 11 Noroeste 0 -- -- 97
2018-05-16 07:00:00 6.7 8 Norte 10 Norte 0 -- -- 98
2018-05-16 06:00:00 6.6 5 Norte 7 Norte 0 -- -- 97
2018-05-16 05:00:00 7.3 2 Oeste 9 Norte 0 -- -- 98
2018-05-16 04:00:00 7.7 3 Norte 7 Noroeste 0 -- -- 97
2018-05-16 03:00:00 8.2 4 Norte 8 Norte 0 -- -- 94
2018-05-16 02:00:00 9.1 5 Norte 9 Sudoeste 0 -- -- 95
2018-05-16 01:00:00 9.6 3 Este 9 Norte 0 -- -- 93
2018-05-16 00:00:00 11.6 3 Nordeste 11 Norte 0 -- -- 88
2018-05-15 23:00:00 12.7 4 Oeste 10 Noroeste 0 -- -- 87
2018-05-15 22:00:00 14.4 6 Norte 12 Noroeste 0 -- -- 80
2018-05-15 21:00:00 17.4 5 Noroeste 6 Noroeste 0 -- -- 67
2018-05-15 20:00:00 18.9 4 Sudeste 11 Sur 0 -- -- 58
2018-05-15 19:00:00 19 6 Sur 11 Sur 0 -- -- 57
2018-05-15 18:00:00 18.6 9 Norte 22 Oeste 0 -- -- 57
2018-05-15 17:00:00 18.4 12 Oeste 19 Oeste 0 -- -- 54
2018-05-15 16:00:00 18.9 10 Sudoeste 18 Noroeste 0 -- -- 52
2018-05-15 15:00:00 19.4 5 Sudoeste 19 Sudoeste 0 -- -- 51
2018-05-15 14:00:00 19.1 12 Sudoeste 30 Sudoeste 0 -- -- 53
2018-05-15 13:00:00 17.7 13 Sudoeste 28 Norte 0 -- -- 54
2018-05-15 12:00:00 17.7 8 Sudeste 25 Sudoeste 0 -- -- 53
2018-05-15 11:00:00 14.6 9 Sudoeste 22 Sudoeste 0 -- -- 59
2018-05-15 10:00:00 11.9 4 Este 10 Este 0 -- -- 69
2018-05-15 09:00:00 8.7 4 Nordeste 7 Sur 0 -- -- 87
2018-05-15 08:00:00 6.2 3 Norte 10 Norte 0 -- -- 93
2018-05-15 07:00:00 4.4 4 Nordeste 12 Noroeste 0 -- -- 96
2018-05-15 06:00:00 4.3 7 Norte 12 Norte 0 -- -- 96
2018-05-15 05:00:00 4.6 2 Sur 10 Noroeste 0 -- -- 95
2018-05-15 04:00:00 5.2 5 Norte 10 Noroeste 0 -- -- 95
2018-05-15 03:00:00 5.6 7 Norte 11 Noroeste 0 -- -- 93
2018-05-15 02:00:00 6.9 5 Noroeste 8 Noroeste 0 -- -- 90
2018-05-15 01:00:00 7.7 6 Norte 9 Norte 0 -- -- 88
2018-05-15 00:00:00 9.8 0 Calma 7 Sudoeste 0 -- -- 78
2018-05-14 23:00:00 11.1 6 Sudoeste 12 Sur 0 -- -- 73
2018-05-14 22:00:00 12.1 6 Sur 9 Sudeste 0 -- -- 70
2018-05-14 21:00:00 13.3 5 Sudeste 18 Este 0 -- -- 66
2018-05-14 20:00:00 14.6 6 Sudeste 21 Este 0 -- -- 63
2018-05-14 19:00:00 16.5 8 Sudeste 19 Sudoeste 0 -- -- 54
2018-05-14 18:00:00 16.7 6 Sudoeste 21 Oeste 0 -- -- 47
2018-05-14 17:00:00 16.9 12 Noroeste 20 Oeste 0 -- -- 43
2018-05-14 16:00:00 17.2 9 Sudoeste 24 Oeste 0 -- -- 40
2018-05-14 15:00:00 17.3 12 Sudoeste 19 Sur 0 -- -- 38
2018-05-14 14:00:00 17.1 8 Sudoeste 24 Sudoeste 0 -- -- 41
2018-05-14 13:00:00 16.8 8 Oeste 27 Sudoeste 0 -- -- 43
2018-05-14 12:00:00 15.8 12 Sur 22 Sur 0 -- -- 53
2018-05-14 11:00:00 13.3 9 Sur 14 Sudeste 0 -- -- 63
2018-05-14 10:00:00 10.7 6 Sudeste 11 Este 0 -- -- 72
2018-05-14 09:00:00 8.2 3 Este 6 Nordeste 0 -- -- 81
2018-05-14 08:00:00 5.1 3 Norte 9 Noroeste 0 -- -- 95
2018-05-14 07:00:00 3.1 3 Norte 9 Noroeste 0 -- -- 96
2018-05-14 06:00:00 2.9 3 Norte 10 Oeste 0 -- -- 96
2018-05-14 05:00:00 3.6 3 Sudoeste 10 Noroeste 0 -- -- 97
2018-05-14 04:00:00 3.3 5 Norte 13 Norte 0 -- -- 94
2018-05-14 03:00:00 4.5 0 Calma 9 Norte 0 -- -- 94
2018-05-14 02:00:00 5.3 3 Norte 13 Noroeste 0 -- -- 91
2018-05-14 01:00:00 7.1 2 Sur 12 Noroeste 0 -- -- 84
2018-05-11 20:00:00 -- -- -- -- -- -- -- -- --
2018-05-11 19:00:00 22.7 18 Sur 27 Sur 0 -- -- 60
2018-05-11 18:00:00 24.2 16 Sur 29 Sudoeste 0 -- -- 54
2018-05-11 17:00:00 25 13 Sudoeste 30 Sudoeste 0 -- -- 37
2018-05-11 16:00:00 24.8 12 Sudoeste 37 Sudoeste 0 -- -- 40
2018-05-11 15:00:00 23.7 16 Sudoeste 35 Sudoeste 0 -- -- 40
2018-05-11 14:00:00 22.7 12 Sudoeste 24 Oeste 0 -- -- 44
2018-05-11 13:00:00 21.2 14 Noroeste 26 Oeste 0 -- -- 44
2018-05-11 12:00:00 20.1 11 Sudoeste 26 Sudoeste 0 -- -- 53
2018-05-11 11:00:00 18.4 13 Sur 21 Sur 0 -- -- 67
2018-05-11 10:00:00 16.4 10 Sur 15 Sur 0 -- -- 75
2018-05-11 09:00:00 14.6 4 Sur 10 Sur 0 -- -- 83
2018-05-11 08:00:00 13.2 4 Sudeste 9 Norte 0 -- -- 90
2018-05-11 07:00:00 12.4 4 Oeste 12 Oeste 0 -- -- 89
2018-05-11 06:00:00 13 4 Sudoeste 8 Sur 0 -- -- 95
2018-05-11 05:00:00 13.6 6 Sudoeste 10 Sur 0 -- -- 96
2018-05-11 04:00:00 13.7 6 Sur 9 Sur 0 -- -- 96
2018-05-11 03:00:00 13.8 4 Sur 8 Sudoeste 0 -- -- 95
2018-05-11 02:00:00 14 5 Sudoeste 15 Sudoeste 0 -- -- 93
2018-05-11 01:00:00 14 10 Sur 21 Sur 0 -- -- 93
2018-05-11 00:00:00 14.2 6 Sudoeste 10 Sur 0 -- -- 94
2018-05-10 23:00:00 14.1 2 Noroeste 6 Oeste 0.2 -- -- 96
2018-05-10 22:00:00 14.1 5 Noroeste 10 Norte 0 -- -- 94
2018-05-10 21:00:00 14.1 7 Noroeste 21 Nordeste 0.4 -- -- 94
2018-05-10 20:00:00 16.6 15 Nordeste 26 Sudeste 0 -- -- 84
2018-05-10 19:00:00 18.7 15 Sudeste 27 Sur 0 -- -- 73
2018-05-10 18:00:00 19.2 16 Sudeste 24 Sudeste 0 -- -- 70
2018-05-10 17:00:00 19.6 13 Sur 26 Sur 0 -- -- 70
2018-05-10 16:00:00 19.5 10 Sur 22 Sudeste 0 -- -- 70
2018-05-10 15:00:00 17.7 15 Sur 25 Sur 0 -- -- 73
2018-05-10 14:00:00 18.6 4 Sudoeste 21 Oeste 0 -- -- 69
2018-05-10 13:00:00 18.1 5 Sur 9 Sudoeste 0 -- -- 74
2018-05-10 12:00:00 17.5 4 Este 10 Este 0 -- -- 76
2018-05-10 11:00:00 15.9 6 Sudeste 10 Sudeste 0 -- -- 77
2018-05-10 10:00:00 14.1 4 Sur 6 Sur 0 -- -- 89
2018-05-10 09:00:00 12.9 2 Sudeste 4 Sudeste 0 -- -- 92
2018-05-10 08:00:00 11.8 4 Norte 7 Norte 0 -- -- 96
2018-05-10 07:00:00 11.4 0 Calma 6 Noroeste 0 -- -- 96
2018-05-10 06:00:00 10.8 5 Norte 9 Noroeste 0 -- -- 98
2018-05-10 05:00:00 10.5 2 Nordeste 10 Noroeste 0 -- -- 96
2018-05-10 04:00:00 10.8 3 Nordeste 14 Norte 0 -- -- 97
2018-05-10 03:00:00 11 10 Noroeste 16 Noroeste 0 -- -- 98
2018-05-10 02:00:00 10.9 3 Noroeste 7 Norte 0 -- -- 97
2018-05-10 01:00:00 11.9 6 Noroeste 9 Noroeste 0 -- -- 96
2018-05-10 00:00:00 12.4 6 Norte 8 Norte 0 -- -- 95
2018-05-09 23:00:00 13.5 3 Norte 9 Norte 0 -- -- 92
2018-05-09 22:00:00 14.3 2 Noroeste 8 Noroeste 0 -- -- 91
2018-05-09 21:00:00 15.2 6 Norte 8 Nordeste 0 -- -- 89
2018-05-09 20:00:00 16.1 4 Norte 16 Nordeste 0 -- -- 82
2018-05-09 19:00:00 16.9 9 Norte 18 Nordeste 0 -- -- 80
2018-05-09 18:00:00 18 16 Nordeste 28 Nordeste 0 -- -- 75
2018-05-09 17:00:00 19.7 13 Sudeste 25 Sudeste 0 -- -- 60
2018-05-09 16:00:00 20.1 18 Sudeste 27 Sudeste 0 -- -- 60
2018-05-09 15:00:00 21.1 6 Norte 18 Norte 0 -- -- 65
2018-05-09 14:00:00 20.3 5 Norte 15 Sur 0 -- -- 67
2018-05-09 13:00:00 18.9 5 Sur 16 Sur 0 -- -- 72
2018-05-09 12:00:00 17 6 Sudoeste 12 Sudeste 0 -- -- 79
2018-05-09 11:00:00 15.3 5 Sur 15 Sudoeste 0 -- -- 83
2018-05-09 10:00:00 13.2 6 Noroeste 14 Noroeste 0 -- -- 100
2018-05-09 09:00:00 11.5 0 Calma 11 Norte 0 -- -- 100
2018-05-09 08:00:00 11.4 0 Calma 6 Nordeste 0 -- -- 100
2018-05-09 07:00:00 11.4 4 Nordeste 7 Nordeste 0 -- -- 100
2018-05-09 06:00:00 11.6 4 Norte 8 Norte 0 -- -- 100
2018-05-09 05:00:00 11.9 4 Nordeste 8 Nordeste 0 -- -- 100
2018-05-09 04:00:00 12.1 5 Nordeste 13 Nordeste 0 -- -- 100
2018-05-09 03:00:00 12.7 4 Norte 6 Norte 0 -- -- 100
2018-05-09 02:00:00 12.6 3 Norte 10 Nordeste 0 -- -- 100
2018-05-09 01:00:00 12.7 6 Norte 11 Norte 0 -- -- 99
2018-05-09 00:00:00 13.2 4 Noroeste 8 Noroeste 0 -- -- 99
2018-05-08 23:00:00 13.6 4 Norte 5 Norte 0 -- -- 97
2018-05-08 22:00:00 14.7 4 Sudoeste 9 Noroeste 0 -- -- 96
2018-05-08 21:00:00 15.5 3 Noroeste 12 Nordeste 0 -- -- 94
2018-05-08 20:00:00 16.4 8 Nordeste 13 Nordeste 0 -- -- 93
2018-05-08 19:00:00 15.7 5 Nordeste 26 Sur 0.4 -- -- 95
2018-05-08 18:00:00 15.3 15 Sur 46 Norte 7.4 -- -- 94
2018-05-08 17:00:00 20.7 8 Noroeste 32 Norte 0 -- -- 73
2018-05-08 16:00:00 22.4 14 Sur 23 Sudoeste 0 -- -- 62
2018-05-08 15:00:00 22.2 15 Sudoeste 24 Sur 0 -- -- 66
2018-05-08 14:00:00 22.5 14 Sur 22 Sur 0 -- -- 62
2018-05-08 13:00:00 21.4 13 Sur 21 Sudeste 0 -- -- 71
2018-05-08 12:00:00 19.8 8 Sudeste 12 Este 0 -- -- 81
2018-05-08 11:00:00 17.1 3 Este 8 Nordeste 0 -- -- 87
2018-05-08 10:00:00 15.5 5 Nordeste 10 Nordeste 0 -- -- 99
2018-05-08 09:00:00 13.1 2 Este 6 Nordeste 0 -- -- 100
2018-05-08 08:00:00 12.3 2 Noroeste 5 Nordeste 0 -- -- 100
2018-05-08 07:00:00 12.1 2 Sur 4 Norte 0.2 -- -- 100
2018-05-08 06:00:00 12.1 4 Norte 5 Norte 0 -- -- 100
2018-05-08 05:00:00 12 4 Noroeste 9 Norte 0 -- -- 100
2018-05-08 04:00:00 12.1 4 Noroeste 8 Noroeste 0 -- -- 100
2018-05-08 03:00:00 12.3 5 Noroeste 7 Noroeste 0 -- -- 100
2018-05-08 02:00:00 12.7 4 Norte 6 Norte 0 -- -- 100
2018-05-08 01:00:00 13.1 4 Norte 7 Norte 0 -- -- 99
2018-05-08 00:00:00 13.4 7 Noroeste 10 Noroeste 0 -- -- 99
2018-05-07 23:00:00 14.3 2 Norte 6 Oeste 0 -- -- 99
2018-05-07 22:00:00 14.5 3 Oeste 8 Norte 0 -- -- 99
2018-05-07 21:00:00 14.8 0 Calma 10 Noroeste 0 -- -- 98
2018-05-07 20:00:00 15.2 4 Este 15 Noroeste 0.4 -- -- 97
2018-05-07 19:00:00 15.4 5 Norte 21 Norte 0.4 -- -- 98
2018-05-07 18:00:00 16 4 Norte 11 Nordeste 0.8 -- -- 97
2018-05-07 17:00:00 15.9 6 Norte 14 Norte 0.4 -- -- 97
2018-05-07 16:00:00 15.2 13 Sudoeste 38 Oeste 21 -- -- 91
2018-05-07 15:00:00 22.9 18 Sur 26 Sur 0 -- -- 60
2018-05-07 14:00:00 24 8 Sur 16 Sur 0 -- -- 62
2018-05-07 13:00:00 22.1 8 Sur 14 Sur 0 -- -- 72
2018-05-07 12:00:00 20.6 8 Sur 13 Sudeste 0 -- -- 76
2018-05-07 11:00:00 18.4 5 Nordeste 9 Nordeste 0 -- -- 88
2018-05-07 10:00:00 15 2 Este 6 Noroeste 0.2 -- -- 99
2018-05-07 09:00:00 14.2 3 Noroeste 7 Noroeste 0 -- -- 99
2018-05-07 08:00:00 13.8 3 Sudoeste 6 Norte 0.2 -- -- 99
2018-05-07 07:00:00 13.7 3 Noroeste 6 Noroeste 0 -- -- 99
2018-05-07 06:00:00 13.7 4 Noroeste 7 Noroeste 0 -- -- 99
2018-05-07 05:00:00 13.7 4 Norte 6 Norte 0 -- -- 99
2018-05-07 04:00:00 13.9 3 Norte 8 Sur 0 -- -- 98
2018-05-07 03:00:00 14.1 4 Sur 7 Sur 0 -- -- 98
2018-05-07 02:00:00 14.3 3 Noroeste 6 Noroeste 0 -- -- 97
2018-05-07 01:00:00 14.4 2 Nordeste 11 Noroeste 0.4 -- -- 96
2018-05-07 00:00:00 14.8 5 Norte 9 Noroeste 0.8 -- -- 94
2018-05-06 23:00:00 15.5 4 Norte 6 Noroeste 0 -- -- 87
2018-05-06 22:00:00 16.9 0 Calma 8 Sur 0 -- -- 83
2018-05-06 21:00:00 17.7 6 Sur 21 Sur 0 -- -- 80
2018-05-06 20:00:00 19.3 7 Sur 20 Sur 0 -- -- 73
2018-05-06 19:00:00 21.4 12 Sur 18 Sur 0 -- -- 64
2018-05-06 18:00:00 21.7 10 Sur 16 Sur 0 -- -- 67
2018-05-06 17:00:00 21.6 8 Sur 14 Sur 0 -- -- 64
2018-05-06 16:00:00 19.8 4 Sur 9 Este 0 -- -- 71
2018-05-06 15:00:00 18.5 4 Sur 6 Sur 0 -- -- 76
2018-05-06 14:00:00 16.5 3 Norte 7 Nordeste 0 -- -- 82
2018-05-06 13:00:00 14.6 2 Noroeste 5 Nordeste 0 -- -- 92
2018-05-06 12:00:00 13.3 3 Noroeste 6 Sudoeste 0 -- -- 95
2018-05-06 11:00:00 11.4 0 Calma 7 Este 1.4 -- -- 98
2018-05-06 10:00:00 10.9 2 Norte 9 Noroeste 0.4 -- -- 97
2018-05-06 09:00:00 9.8 7 Noroeste 10 Noroeste 0 -- -- 98
2018-05-06 08:00:00 8.7 2 Noroeste 6 Sudoeste 0 -- -- 98
2018-05-06 07:00:00 8 4 Norte 6 Norte 0 -- -- 98
2018-05-06 06:00:00 7.6 0 Calma 8 Noroeste 0 -- -- 98
2018-05-06 05:00:00 8.1 0 Calma 4 Norte 0 -- -- 97
2018-05-06 04:00:00 9.3 0 Calma 10 Norte 0 -- -- 98
2018-05-06 03:00:00 9.9 4 Norte 9 Norte 0 -- -- 98
2018-05-06 02:00:00 10.1 7 Norte 8 Norte 0 -- -- 95
2018-05-06 01:00:00 11.3 3 Noroeste 6 Norte 0 -- -- 93
2018-05-06 00:00:00 12.4 6 Norte 9 Noroeste 0 -- -- 94
2018-05-05 23:00:00 13.9 8 Norte 11 Norte 0 -- -- 93
2018-05-05 22:00:00 15.4 7 Noroeste 10 Noroeste 0 -- -- 87
2018-05-05 21:00:00 16.2 3 Norte 6 Sudoeste 0 -- -- 84
2018-05-05 20:00:00 17.1 4 Sur 13 Sudoeste 0 -- -- 76
2018-05-05 19:00:00 18.4 8 Sur 18 Sur 0 -- -- 69
2018-05-05 18:00:00 20.3 3 Oeste 10 Sur 0 -- -- 57
2018-05-05 17:00:00 18.3 4 Sur 14 Sur 0 -- -- 68
2018-05-05 16:00:00 17.2 9 Sur 16 Sur 0 -- -- 71
2018-05-05 15:00:00 19.1 4 Este 13 Sur 0 -- -- 62
2018-05-05 14:00:00 18.3 8 Sur 12 Sur 0 -- -- 62
2018-05-05 13:00:00 18 4 Norte 10 Sudoeste 0 -- -- 61
2018-05-05 12:00:00 15.6 2 Sudeste 9 Sudeste 0 -- -- 65
2018-05-05 11:00:00 14.2 3 Nordeste 9 Nordeste 0 -- -- 70
2018-05-05 10:00:00 11.8 6 Sudeste 11 Este 0 -- -- 75
2018-05-05 09:00:00 10.2 2 Sudeste 6 Oeste 0 -- -- 84
2018-05-05 08:00:00 8.6 3 Noroeste 13 Noroeste 0 -- -- 89
2018-05-05 07:00:00 8.3 3 Norte 10 Oeste 0 -- -- 89
2018-05-05 06:00:00 9.8 6 Oeste 12 Oeste 0 -- -- 81
2018-05-05 05:00:00 9.8 5 Noroeste 10 Oeste 0 -- -- 83
2018-05-05 04:00:00 9.8 2 Noroeste 4 Norte 0 -- -- 90
2018-05-05 03:00:00 10.3 2 Norte 10 Norte 0 -- -- 92
2018-05-05 02:00:00 11.5 6 Noroeste 9 Noroeste 0 -- -- 92
2018-05-05 01:00:00 12.7 2 Este 5 Sudoeste 0 -- -- 85
2018-05-05 00:00:00 13.6 4 Sudoeste 7 Noroeste 0 -- -- 87
2018-05-04 23:00:00 14.8 0 Calma 5 Sudeste 0 -- -- 79
2018-05-04 22:00:00 15.9 2 Sur 5 Sudoeste 0 -- -- 74
2018-05-04 21:00:00 16.7 5 Sudoeste 10 Sur 0 -- -- 65
2018-05-04 20:00:00 18.1 7 Sur 10 Sudoeste 0 -- -- 58
2018-05-04 19:00:00 19.2 3 Sudeste 9 Sur 0 -- -- 53
2018-05-04 18:00:00 19 6 Oeste 12 Oeste 0 -- -- 53
2018-05-04 17:00:00 17.8 4 Sur 12 Sudoeste 0 -- -- 56
2018-05-04 16:00:00 18 8 Sur 14 Sur 0 -- -- 56
2018-05-04 15:00:00 16.4 8 Sur 15 Sur 0 -- -- 61
2018-05-04 14:00:00 16.1 10 Sur 17 Sudeste 0 -- -- 59
2018-05-04 13:00:00 16.2 12 Sudeste 19 Sudeste 0 -- -- 58
2018-05-04 12:00:00 14.5 8 Sudeste 15 Sudoeste 0 -- -- 58
2018-05-04 11:00:00 13 8 Sur 17 Noroeste 0 -- -- 64
2018-05-04 10:00:00 11.3 12 Noroeste 22 Noroeste 0 -- -- 65
2018-05-04 09:00:00 9.4 11 Noroeste 21 Noroeste 0 -- -- 72
2018-05-04 08:00:00 8.2 5 Oeste 12 Oeste 0 -- -- 74
2018-05-04 07:00:00 8.1 3 Sudoeste 9 Noroeste 0 -- -- 75
2018-05-04 06:00:00 8.8 6 Oeste 15 Oeste 0 -- -- 70
2018-05-04 05:00:00 9.5 3 Sudoeste 21 Noroeste 0 -- -- 68
2018-05-04 04:00:00 10.4 4 Sur 20 Oeste 0 -- -- 65
2018-05-04 03:00:00 11.4 4 Oeste 19 Sudoeste 0 -- -- 62
2018-05-04 02:00:00 12.3 4 Nordeste 11 Sudoeste 0 -- -- 63
2018-05-04 01:00:00 13 4 Sudeste 12 Sur 0 -- -- 72
2018-05-04 00:00:00 13.5 4 Sudeste 10 Sur 0 -- -- 72
2018-05-03 23:00:00 14.8 8 Sur 14 Sudoeste 0 -- -- 67
2018-05-03 22:00:00 15.6 11 Sur 15 Sur 0 -- -- 63
2018-05-03 21:00:00 16.9 7 Nordeste 20 Norte 0 -- -- 40
2018-05-03 20:00:00 18.1 16 Norte 29 Norte 0 -- -- 35
2018-05-03 19:00:00 18.9 19 Norte 31 Norte 0 -- -- 35
2018-05-03 18:00:00 19.6 21 Norte 35 Nordeste 0 -- -- 34
2018-05-03 17:00:00 19.9 20 Norte 32 Norte 0 -- -- 34
2018-05-03 16:00:00 20.4 13 Sudoeste 28 Sudoeste 0 -- -- 47
2018-05-03 15:00:00 19.3 15 Sudoeste 32 Sudoeste 0 -- -- 52
2018-05-03 14:00:00 19.6 11 Sudoeste 37 Sudoeste 0 -- -- 51
2018-05-03 13:00:00 19.4 15 Sur 27 Sur 0 -- -- 52
2018-05-03 12:00:00 16.9 15 Sudoeste 24 Sur 0 -- -- 59
2018-05-03 11:00:00 14.6 10 Sudoeste 19 Oeste 0 -- -- 71
2018-05-03 10:00:00 10.8 5 Sur 9 Sudeste 0 -- -- 79
2018-05-03 09:00:00 8.7 0 Calma 8 Norte 0 -- -- 86
2018-05-03 08:00:00 6.8 3 Norte 8 Norte 0 -- -- 91
2018-05-03 07:00:00 5.6 2 Norte 7 Norte 0 -- -- 93
2018-05-03 06:00:00 5.9 0 Calma 4 Sudoeste 0 -- -- 92
2018-05-03 05:00:00 6.5 2 Sudoeste 5 Noroeste 0 -- -- 90
2018-05-03 04:00:00 7.4 2 Nordeste 9 Noroeste 0 -- -- 86
2018-05-03 03:00:00 8.1 3 Oeste 10 Noroeste 0 -- -- 84
2018-05-03 02:00:00 8.6 4 Noroeste 8 Noroeste 0 -- -- 82
2018-05-03 01:00:00 8.8 3 Norte 10 Noroeste 0 -- -- 80
2018-05-03 00:00:00 9.8 6 Norte 14 Norte 0 -- -- 73
2018-05-02 23:00:00 12.1 3 Nordeste 7 Oeste 0 -- -- 62
2018-05-02 22:00:00 14.7 5 Sudoeste 19 Sudoeste 0 -- -- 51
2018-05-02 21:00:00 16.5 13 Sudoeste 19 Sudoeste 0 -- -- 44
2018-05-02 20:00:00 17.3 9 Sudoeste 30 Sudoeste 0 -- -- 42
2018-05-02 19:00:00 19.3 11 Sudoeste 34 Sudoeste 0 -- -- 38
2018-05-02 18:00:00 21 8 Oeste 27 Sudoeste 0 -- -- 35
2018-05-02 17:00:00 20 15 Sudoeste 31 Sudoeste 0 -- -- 36
2018-05-02 16:00:00 19.3 11 Sudoeste 33 Sudoeste 0 -- -- 37
2018-05-02 15:00:00 18.6 14 Sudoeste 23 Sudoeste 0 -- -- 39
2018-05-02 14:00:00 17.4 10 Sudeste 25 Sudoeste 0 -- -- 44
2018-05-02 13:00:00 15.5 11 Sudeste 19 Sudeste 0 -- -- 60
2018-05-02 12:00:00 13.1 6 Sudeste 13 Sudeste 0 -- -- 62
2018-05-02 11:00:00 9.6 3 Nordeste 9 Este 0 -- -- 87
2018-05-02 10:00:00 5.3 4 Este 7 Nordeste 0 -- -- 100
2018-05-02 09:00:00 1.8 2 Noroeste 8 Norte 0 -- -- 100
2018-05-02 08:00:00 1.4 3 Norte 6 Norte 0 -- -- 100
2018-05-02 07:00:00 1.6 3 Norte 6 Oeste 0 -- -- 100
2018-05-02 06:00:00 1.7 4 Noroeste 9 Norte 0 -- -- 99
2018-05-02 05:00:00 2.1 5 Norte 8 Norte 0 -- -- 99
2018-05-02 04:00:00 2.2 6 Norte 10 Noroeste 0 -- -- 99
2018-05-02 03:00:00 2.7 0 Calma 5 Noroeste 0 -- -- 99
2018-05-02 02:00:00 3.1 0 Calma 6 Norte 0 -- -- 98
2018-05-02 01:00:00 3.4 5 Norte 8 Noroeste 0 -- -- 98
2018-05-02 00:00:00 4.7 5 Norte 8 Norte 0 -- -- 97
2018-05-01 23:00:00 5.5 2 Nordeste 10 Norte 0 -- -- 95
2018-05-01 22:00:00 6.1 6 Noroeste 9 Noroeste 0 -- -- 94
2018-05-01 21:00:00 8.1 3 Sudoeste 5 Sudoeste 0 -- -- 87
2018-05-01 20:00:00 9.5 3 Sudoeste 9 Sudoeste 0 -- -- 80
2018-05-01 19:00:00 9.6 2 Sudoeste 13 Sur 0 -- -- 85
2018-05-01 18:00:00 8.9 9 Sur 18 Sudoeste 0.8 -- -- 89
2018-05-01 17:00:00 8.5 6 Norte 24 Norte 0.8 -- -- 88
2018-05-01 16:00:00 11.6 14 Norte 28 Nordeste 0 -- -- 67
2018-05-01 15:00:00 14.3 5 Sudoeste 16 Este 0 -- -- 49
2018-05-01 14:00:00 13.1 9 Sudeste 15 Sudeste 0 -- -- 62
2018-05-01 13:00:00 10.6 9 Sur 15 Sur 0 -- -- 72
2018-05-01 12:00:00 9.6 5 Sudeste 10 Sudoeste 0 -- -- 73
2018-05-01 11:00:00 9.2 4 Nordeste 8 Noroeste 0 -- -- 75
2018-05-01 10:00:00 7.8 3 Noroeste 6 Oeste 0 -- -- 80
2018-05-01 09:00:00 6.7 0 Calma 4 Norte 0 -- -- 88
2018-05-01 08:00:00 5.7 2 Norte 5 Nordeste 0 -- -- 89
2018-05-01 07:00:00 5.5 0 Calma 8 Noroeste 0 -- -- 89
2018-05-01 06:00:00 5.2 3 Sudeste 12 Noroeste 0 -- -- 88
2018-05-01 05:00:00 5.4 6 Norte 8 Norte 0 -- -- 86
2018-05-01 04:00:00 5.5 8 Noroeste 12 Noroeste 0 -- -- 85
2018-05-01 03:00:00 5.1 5 Norte 8 Norte 0 -- -- 85
2018-05-01 02:00:00 4.8 4 Norte 8 Sudoeste 0 -- -- 85
2018-05-01 01:00:00 6.4 0 Calma 8 Norte 0 -- -- 75
2018-05-01 00:00:00 8.5 2 Sudoeste 7 Norte 0 -- -- 64
2018-04-30 23:00:00 10.2 4 Sudeste 14 Sudoeste 0 -- -- 59
2018-04-30 22:00:00 11.8 4 Sudoeste 12 Oeste 0 -- -- 47
2018-04-30 21:00:00 13.2 3 Sudoeste 14 Noroeste 0 -- -- 43
2018-04-30 20:00:00 14.3 4 Sudoeste 17 Oeste 0 -- -- 45
2018-04-30 19:00:00 14.6 6 Oeste 24 Noroeste 0 -- -- 44
2018-04-30 18:00:00 14.6 13 Noroeste 27 Oeste 0 -- -- 43
2018-04-30 17:00:00 15.4 18 Sudoeste 26 Sudoeste 0 -- -- 39
2018-04-30 16:00:00 16.3 15 Sudoeste 34 Sudoeste 0 -- -- 44
2018-04-30 15:00:00 15.8 14 Sudoeste 33 Sudoeste 0 -- -- 45
2018-04-30 14:00:00 15.5 19 Sudoeste 32 Sudoeste 0 -- -- 45
2018-04-30 13:00:00 14.4 12 Sudoeste 30 Sudoeste 0 -- -- 51
2018-04-30 12:00:00 13.2 10 Oeste 28 Sudoeste 0 -- -- 54
2018-04-30 11:00:00 12.6 10 Noroeste 21 Oeste 0 -- -- 62
2018-04-30 10:00:00 11.2 5 Sur 14 Sudoeste 0 -- -- 77
2018-04-30 09:00:00 7.5 3 Nordeste 6 Este 0 -- -- 93
2018-04-30 08:00:00 4.1 3 Norte 9 Noroeste 0 -- -- 98
2018-04-30 07:00:00 3.6 2 Noroeste 10 Norte 0 -- -- 99
2018-04-30 06:00:00 3.4 2 Oeste 6 Norte 0 -- -- 98
2018-04-30 05:00:00 4.5 5 Noroeste 9 Noroeste 0 -- -- 99
2018-04-30 04:00:00 4.4 4 Sudoeste 7 Sur 0 -- -- 98
2018-04-30 03:00:00 4.5 4 Sudoeste 10 Norte 0 -- -- 97
2018-04-30 02:00:00 5.3 2 Oeste 12 Norte 0 -- -- 96
2018-04-30 01:00:00 6 2 Nordeste 5 Noroeste 0 -- -- 92
2018-04-30 00:00:00 7.4 4 Norte 8 Sudoeste 0 -- -- 88
2018-04-29 23:00:00 8.9 5 Sudoeste 7 Sudoeste 0 -- -- 85
2018-04-29 22:00:00 9.9 4 Sudoeste 23 Sudoeste 0 -- -- 79
2018-04-29 21:00:00 10.8 8 Sudoeste 26 Sudoeste 0 -- -- 76
2018-04-29 20:00:00 11.5 7 Sudoeste 18 Sudoeste 0 -- -- 79
2018-04-29 19:00:00 10.7 6 Sur 15 Sur 0 -- -- 84
2018-04-29 18:00:00 8.8 3 Nordeste 33 Noroeste 0.6 -- -- 90
2018-04-29 17:00:00 11.5 6 Sur 18 Sur 0 -- -- 76
2018-04-29 16:00:00 10.9 4 Sudeste 33 Noroeste 0.2 -- -- 83
2018-04-29 15:00:00 10.6 8 Sur 13 Sudeste 0.4 -- -- 86
2018-04-29 14:00:00 11.1 10 Sudoeste 29 Sudoeste 0.8 -- -- 80
2018-04-29 13:00:00 12.2 6 Sudeste 15 Sudeste 0 -- -- 82
2018-04-29 12:00:00 9.7 3 Noroeste 40 Oeste 4.6 -- -- 90
2018-04-29 11:00:00 13.8 24 Sudoeste 42 Oeste 0 -- -- 70
2018-04-29 10:00:00 14.7 17 Sudeste 34 Sudeste 0 -- -- 84
2018-04-29 09:00:00 13.5 3 Nordeste 10 Nordeste 0 -- -- 89
2018-04-29 08:00:00 13.2 6 Nordeste 14 Norte 0 -- -- 88
2018-04-29 07:00:00 12.8 5 Noroeste 8 Noroeste 0 -- -- 89
2018-04-29 06:00:00 12.9 0 Calma 9 Norte 0 -- -- 91
2018-04-29 05:00:00 12.9 4 Noroeste 10 Norte 0 -- -- 92
2018-04-29 04:00:00 13.2 5 Norte 9 Norte 0 -- -- 93
2018-04-29 03:00:00 13.8 2 Nordeste 7 Norte 0 -- -- 90
2018-04-29 02:00:00 14.6 3 Noroeste 6 Este 0 -- -- 88
2018-04-29 01:00:00 15.1 3 Este 12 Sur 0 -- -- 87
2018-04-29 00:00:00 15.4 8 Sur 24 Sur 0 -- -- 86
2018-04-28 23:00:00 15.7 11 Sur 25 Sur 0 -- -- 84
2018-04-28 22:00:00 16.4 9 Sudoeste 19 Sur 0 -- -- 80
2018-04-28 21:00:00 17.3 10 Sur 21 Sudoeste 0 -- -- 76
2018-04-28 20:00:00 18.7 12 Sur 21 Sur 0 -- -- 70
2018-04-28 19:00:00 20.7 14 Sur 23 Sur 0 -- -- 62
2018-04-28 18:00:00 20.7 18 Sudoeste 24 Sudoeste 0 -- -- 62
2018-04-28 17:00:00 21.3 12 Sur 24 Sudoeste 0 -- -- 59
2018-04-28 16:00:00 20.5 9 Sudeste 23 Sur 0 -- -- 62
2018-04-28 15:00:00 20.3 10 Sur 23 Sur 0 -- -- 62
2018-04-28 14:00:00 20.4 9 Sur 20 Sudeste 0 -- -- 61
2018-04-28 13:00:00 19.4 10 Sudoeste 17 Sudoeste 0 -- -- 65
2018-04-28 12:00:00 19.2 5 Este 12 Sudeste 0 -- -- 63
2018-04-28 11:00:00 17.8 3 Este 6 Noroeste 0 -- -- 72
2018-04-28 10:00:00 16.3 0 Calma 8 Nordeste 0 -- -- 76
2018-04-28 09:00:00 13.2 4 Norte 6 Norte 0 -- -- 98
2018-04-28 08:00:00 12 3 Norte 7 Noroeste 0 -- -- 96
2018-04-28 07:00:00 11.6 2 Noroeste 6 Noroeste 0 -- -- 95
2018-04-28 06:00:00 11.9 0 Calma 8 Noroeste 0 -- -- 94
2018-04-28 05:00:00 12.6 3 Noroeste 8 Sudeste 0 -- -- 91
2018-04-28 04:00:00 13.6 5 Sudoeste 15 Norte 0 -- -- 92
2018-04-28 03:00:00 13.8 4 Noroeste 18 Norte 0 -- -- 91
2018-04-28 02:00:00 13.8 9 Norte 10 Norte 0 -- -- 90
2018-04-28 01:00:00 14.6 5 Noroeste 10 Noroeste 0 -- -- 88
2018-04-28 00:00:00 14.9 4 Noroeste 13 Norte 0 -- -- 86
2018-04-27 23:00:00 15.5 8 Norte 12 Norte 0 -- -- 84
2018-04-27 22:00:00 17.4 7 Sur 18 Sur 0 -- -- 76
2018-04-27 21:00:00 18.3 11 Sur 25 Sur 0 -- -- 69
2018-04-27 20:00:00 19.2 20 Sur 33 Sur 0 -- -- 68
2018-04-27 19:00:00 21.5 18 Sur 37 Sur 0 -- -- 61
2018-04-27 18:00:00 24 21 Sur 35 Sur 0 -- -- 55
2018-04-27 17:00:00 25.6 22 Sur 32 Sur 0 -- -- 48
2018-04-27 16:00:00 26.5 15 Sur 27 Sur 0 -- -- 49
2018-04-27 15:00:00 25.5 13 Sur 23 Sudeste 0 -- -- 51
2018-04-27 14:00:00 24.5 12 Sur 19 Sur 0 -- -- 53
2018-04-27 13:00:00 23 10 Sur 17 Sudeste 0 -- -- 54
2018-04-27 12:00:00 20.9 7 Sur 13 Sudeste 0 -- -- 65
2018-04-27 11:00:00 18.2 4 Sur 10 Sur 0 -- -- 75
2018-04-27 10:00:00 14.6 5 Este 8 Este 0 -- -- 95
2018-04-27 09:00:00 12 2 Oeste 6 Noroeste 0 -- -- 99
2018-04-27 08:00:00 11.1 4 Norte 9 Nordeste 0 -- -- 99
2018-04-27 07:00:00 10.4 4 Norte 6 Noroeste 0 -- -- 98
2018-04-27 06:00:00 9.5 4 Norte 4 Norte 0 -- -- 97
2018-04-27 05:00:00 9.5 0 Calma 4 Noroeste 0 -- -- 95
2018-04-27 04:00:00 10 3 Noroeste 8 Noroeste 0 -- -- 95
2018-04-27 03:00:00 10.4 2 Oeste 5 Noroeste 0 -- -- 94
2018-04-27 02:00:00 11.9 2 Sur 3 Sur 0 -- -- 92
2018-04-27 01:00:00 12.8 0 Calma 8 Norte 0 -- -- 91
2018-04-27 00:00:00 14.5 3 Sudoeste 10 Sur 0 -- -- 87
2018-04-26 23:00:00 15.4 4 Sudeste 10 Sudeste 0 -- -- 83
2018-04-26 22:00:00 16.5 7 Sur 29 Sudoeste 0 -- -- 77
2018-04-26 21:00:00 17.8 19 Sudoeste 29 Sudoeste 0 -- -- 73
2018-04-26 20:00:00 20.4 17 Sur 28 Sudoeste 0 -- -- 66
2018-04-26 19:00:00 23.5 10 Sudoeste 24 Sudoeste 0 -- -- 55
2018-04-26 18:00:00 24.1 8 Sur 21 Oeste 0 -- -- 54
2018-04-26 17:00:00 23.3 10 Sudoeste 19 Sudoeste 0 -- -- 54
2018-04-26 16:00:00 22.8 6 Noroeste 22 Norte 0 -- -- 53
2018-04-26 15:00:00 20.3 11 Norte 21 Noroeste 0 -- -- 59
2018-04-26 14:00:00 19.2 8 Noroeste 23 Oeste 0 -- -- 63
2018-04-26 13:00:00 18.1 8 Sudoeste 21 Noroeste 0 -- -- 65
2018-04-26 12:00:00 16.6 8 Norte 22 Oeste 0 -- -- 68
2018-04-26 11:00:00 15 9 Noroeste 19 Noroeste 0 -- -- 74
2018-04-26 10:00:00 14.2 12 Noroeste 21 Oeste 0 -- -- 76
2018-04-26 09:00:00 13.2 8 Sudoeste 21 Oeste 0 -- -- 80
2018-04-26 08:00:00 12.6 4 Oeste 14 Noroeste 0 -- -- 83
2018-04-26 07:00:00 12.5 7 Sudoeste 14 Sudoeste 0 -- -- 84
2018-04-26 06:00:00 11.4 3 Sur 6 Sudoeste 0 -- -- 93
2018-04-26 05:00:00 11.4 2 Sudeste 8 Noroeste 0 -- -- 90
2018-04-26 04:00:00 11.7 4 Norte 8 Norte 0 -- -- 87
2018-04-26 03:00:00 13.5 3 Sur 9 Noroeste 0 -- -- 84
2018-04-26 02:00:00 14.6 4 Noroeste 9 Norte 0 -- -- 81
2018-04-26 01:00:00 14.7 3 Noroeste 9 Noroeste 0 -- -- 80
2018-04-26 00:00:00 16.3 2 Sudeste 12 Noroeste 0 -- -- 74
2018-04-25 23:00:00 16.7 4 Norte 11 Noroeste 0 -- -- 71
2018-04-25 22:00:00 17.5 6 Noroeste 8 Noroeste 0 -- -- 66
2018-04-25 21:00:00 18 7 Noroeste 10 Noroeste 0 -- -- 64
2018-04-25 20:00:00 19.8 5 Sudoeste 17 Sudeste 0 -- -- 59
2018-04-25 19:00:00 21.3 14 Sur 25 Sur 0 -- -- 53
2018-04-25 18:00:00 22.4 17 Sur 33 Sur 0 -- -- 50
2018-04-25 17:00:00 24.2 23 Sur 33 Sudoeste 0 -- -- 43
2018-04-25 16:00:00 26.9 20 Sur 37 Sudoeste 0 -- -- 39
2018-04-25 15:00:00 27.3 26 Sudoeste 37 Sudoeste 0 -- -- 39
2018-04-25 14:00:00 28 15 Sur 23 Sur 0 -- -- 43
2018-04-25 13:00:00 27.3 4 Sudoeste 11 Sudeste 0 -- -- 41
2018-04-25 12:00:00 24.5 4 Sudoeste 9 Sur 0 -- -- 51
2018-04-25 11:00:00 21.4 3 Este 8 Nordeste 0 -- -- 63
2018-04-25 10:00:00 17.6 4 Nordeste 6 Este 0 -- -- 75
2018-04-25 09:00:00 13.7 2 Norte 9 Noroeste 0 -- -- 86
2018-04-25 08:00:00 10.4 7 Noroeste 11 Norte 0 -- -- 95
2018-04-25 07:00:00 9.7 0 Calma 10 Noroeste 0 -- -- 94
2018-04-25 06:00:00 9.6 8 Noroeste 12 Noroeste 0 -- -- 95
2018-04-25 05:00:00 10.1 2 Oeste 8 Norte 0 -- -- 95
2018-04-25 04:00:00 10.2 5 Noroeste 9 Noroeste 0 -- -- 91
2018-04-25 03:00:00 11.1 2 Norte 7 Norte 0 -- -- 90
2018-04-25 02:00:00 12.3 4 Noroeste 9 Noroeste 0 -- -- 86
2018-04-25 01:00:00 13.3 2 Noroeste 9 Norte 0 -- -- 83
2018-04-25 00:00:00 14 7 Norte 9 Norte 0 -- -- 81
2018-04-24 23:00:00 16.2 6 Norte 8 Noroeste 0 -- -- 72
2018-04-24 22:00:00 18.9 5 Sudoeste 10 Sur 0 -- -- 62
2018-04-24 21:00:00 20.6 7 Sur 22 Sur 0 -- -- 58
2018-04-24 20:00:00 22.4 15 Sudoeste 25 Sur 0 -- -- 52
2018-04-24 19:00:00 24.5 16 Sur 24 Sur 0 -- -- 47
2018-04-24 18:00:00 26 15 Sur 26 Sur 0 -- -- 42
2018-04-24 17:00:00 26.3 10 Sur 24 Sur 0 -- -- 39
2018-04-24 16:00:00 26 13 Sur 21 Sur 0 -- -- 40
2018-04-24 15:00:00 25.5 13 Sur 24 Sudeste 0 -- -- 44
2018-04-24 14:00:00 25.1 11 Sur 22 Sur 0 -- -- 44
2018-04-24 13:00:00 23.8 11 Sur 22 Sur 0 -- -- 50
2018-04-24 12:00:00 22.5 10 Sur 17 Sudeste 0 -- -- 56
2018-04-24 11:00:00 20.2 5 Sudeste 9 Sudeste 0 -- -- 63
2018-04-24 10:00:00 16.8 4 Sur 7 Sur 0 -- -- 71
2018-04-24 09:00:00 12.8 3 Norte 6 Norte 0 -- -- 86
2018-04-24 08:00:00 9.8 4 Norte 7 Noroeste 0 -- -- 94
2018-04-24 07:00:00 9.4 2 Nordeste 6 Norte 0 -- -- 92
2018-04-24 06:00:00 10.7 0 Calma 5 Norte 0 -- -- 90
2018-04-24 05:00:00 11 0 Calma 8 Norte 0 -- -- 88
2018-04-24 04:00:00 10.9 4 Norte 10 Noroeste 0 -- -- 90
2018-04-24 03:00:00 12.1 5 Norte 8 Noroeste 0 -- -- 87
2018-04-24 02:00:00 12.7 0 Calma 9 Norte 0 -- -- 82
2018-04-24 01:00:00 13.3 7 Norte 12 Noroeste 0 -- -- 80
2018-04-24 00:00:00 14.7 4 Noroeste 20 Noroeste 0 -- -- 74